Time;durP1;ratioP1;P1;durP2;ratioP2;P2;SDS_P1;SDS_P2;PMS_P1;PMS_P2;Temp;Humidity;BMP_temperature;BMP_pressure;BME280_temperature;BME280_humidity;BME280_pressure;Samples;Min_cycle;Max_cycle;Signal;HPM_P1;HPM_P2
2021/05/31 00:01:52;;;;;;;10.07;5.88;;;16.60;65.30;;;;;;5068152;28;20094;-76
2021/05/31 00:04:17;;;;;;;10.85;5.47;;;16.70;64.90;;;;;;5074855;28;20021;-76
2021/05/31 00:06:49;;;;;;;11.23;6.00;;;16.70;65.10;;;;;;5074552;28;20099;-75
2021/05/31 00:09:15;;;;;;;12.40;6.15;;;16.60;65.40;;;;;;5076010;28;20373;-76
2021/05/31 00:11:41;;;;;;;10.52;5.25;;;16.60;65.60;;;;;;5074584;28;20024;-75
2021/05/31 00:14:06;;;;;;;12.48;5.93;;;16.50;65.70;;;;;;5074739;28;20028;-75
2021/05/31 00:16:33;;;;;;;10.73;6.28;;;16.50;66.00;;;;;;5074272;28;20036;-75
2021/05/31 00:18:59;;;;;;;13.18;6.30;;;16.40;66.20;;;;;;5075714;28;20064;-76
2021/05/31 00:21:24;;;;;;;8.27;5.45;;;16.40;66.40;;;;;;5057734;28;20098;-75
2021/05/31 00:23:50;;;;;;;17.38;7.13;;;16.40;66.80;;;;;;5075264;28;20494;-76
2021/05/31 00:26:17;;;;;;;13.60;5.90;;;16.30;67.00;;;;;;5058130;28;20025;-75
2021/05/31 00:28:44;;;;;;;14.98;7.65;;;16.30;67.30;;;;;;5057858;28;20044;-76
2021/05/31 00:31:11;;;;;;;14.00;6.82;;;16.20;67.60;;;;;;5069487;28;20045;-75
2021/05/31 00:33:37;;;;;;;13.45;7.60;;;16.20;67.90;;;;;;5045930;28;20464;-75
2021/05/31 00:36:03;;;;;;;13.48;6.85;;;16.10;68.10;;;;;;5040767;28;20137;-75
2021/05/31 00:38:29;;;;;;;12.65;6.88;;;16.10;68.30;;;;;;5073821;28;20028;-75
2021/05/31 00:40:55;;;;;;;12.80;7.00;;;16.10;68.50;;;;;;5057527;28;20085;-76
2021/05/31 00:43:20;;;;;;;10.68;6.72;;;16.00;68.70;;;;;;5057143;28;20128;-76
2021/05/31 00:45:48;;;;;;;13.50;6.38;;;16.00;68.90;;;;;;5073919;28;20366;-75
2021/05/31 00:48:15;;;;;;;12.63;6.53;;;16.00;69.10;;;;;;5075417;28;20027;-75
2021/05/31 00:50:43;;;;;;;14.82;8.38;;;15.90;69.40;;;;;;5073777;28;20062;-75
2021/05/31 00:53:09;;;;;;;14.38;7.03;;;15.90;69.60;;;;;;5073931;28;20472;-75
2021/05/31 00:55:36;;;;;;;13.73;7.43;;;15.80;69.80;;;;;;5072965;28;20033;-75
2021/05/31 00:58:03;;;;;;;12.30;7.57;;;15.80;70.10;;;;;;5073853;28;20047;-75
2021/05/31 01:00:29;;;;;;;14.93;7.75;;;15.80;70.40;;;;;;5068348;28;20028;-75
2021/05/31 01:02:56;;;;;;;14.02;8.30;;;15.70;70.60;;;;;;5053935;28;20017;-75
2021/05/31 01:05:23;;;;;;;13.27;8.88;;;15.70;71.00;;;;;;5036862;28;20025;-75
2021/05/31 01:07:52;;;;;;;13.65;7.97;;;15.60;71.20;;;;;;5053323;28;20068;-75
2021/05/31 01:10:41;;;;;;;14.98;8.93;;;15.60;71.40;;;;;;5057025;28;20036;-76
2021/05/31 01:13:21;;;;;;;14.60;8.30;;;15.50;71.70;;;;;;5074155;28;20036;-75
2021/05/31 01:16:06;;;;;;;16.88;8.88;;;15.50;71.90;;;;;;5073151;28;20035;-77
2021/05/31 01:18:39;;;;;;;15.88;8.30;;;15.50;72.30;;;;;;5072873;28;20060;-77
2021/05/31 01:21:09;;;;;;;15.68;8.65;;;15.40;72.30;;;;;;5074180;28;20054;-77
2021/05/31 01:23:37;;;;;;;13.80;8.48;;;15.40;72.60;;;;;;5072889;28;20514;-77
2021/05/31 01:26:11;;;;;;;16.40;8.75;;;15.40;72.80;;;;;;5056216;28;20025;-77
2021/05/31 01:28:49;;;;;;;14.75;7.85;;;15.40;73.20;;;;;;5072804;28;20074;-77
2021/05/31 01:31:17;;;;;;;18.67;9.23;;;15.30;73.40;;;;;;5072611;28;20052;-77
2021/05/31 01:33:46;;;;;;;19.55;9.25;;;15.30;73.60;;;;;;5072698;28;20086;-77
2021/05/31 01:36:12;;;;;;;14.32;8.68;;;15.20;73.90;;;;;;5053924;28;20028;-76
2021/05/31 01:38:40;;;;;;;15.60;9.25;;;15.20;74.10;;;;;;5053019;28;20483;-77
2021/05/31 01:41:07;;;;;;;16.45;9.57;;;15.10;74.30;;;;;;5054244;28;20096;-77
2021/05/31 01:43:33;;;;;;;15.73;9.95;;;15.10;74.60;;;;;;5066506;28;20551;-77
2021/05/31 01:46:00;;;;;;;16.40;10.10;;;15.10;74.80;;;;;;5073779;28;20028;-77
2021/05/31 01:48:27;;;;;;;18.50;9.90;;;15.00;74.90;;;;;;5072439;28;20012;-76
2021/05/31 01:50:53;;;;;;;15.77;9.43;;;15.00;75.20;;;;;;5073672;28;20094;-77
2021/05/31 01:53:19;;;;;;;17.35;9.85;;;15.00;75.50;;;;;;5039155;28;20484;-77
2021/05/31 01:55:48;;;;;;;17.70;10.70;;;14.90;75.70;;;;;;5073494;28;20028;-76
2021/05/31 01:58:14;;;;;;;17.13;10.02;;;14.90;75.90;;;;;;5073642;28;20020;-77
2021/05/31 02:00:40;;;;;;;16.25;10.02;;;14.90;76.00;;;;;;5055701;28;20381;-77
2021/05/31 02:03:06;;;;;;;18.10;10.57;;;14.80;76.10;;;;;;5072787;28;20025;-77
2021/05/31 02:05:31;;;;;;;17.85;10.73;;;14.80;76.40;;;;;;5039026;28;20025;-77
2021/05/31 02:07:57;;;;;;;16.63;10.32;;;14.80;76.60;;;;;;5072546;28;20025;-77
2021/05/31 02:10:23;;;;;;;17.98;10.98;;;14.80;76.70;;;;;;5055690;28;20056;-77
2021/05/31 02:12:52;;;;;;;17.75;10.40;;;14.80;77.00;;;;;;5055466;28;20048;-77
2021/05/31 02:15:35;;;;;;;20.83;10.75;;;14.70;77.20;;;;;;5072067;28;20024;-77
2021/05/31 02:18:07;;;;;;;21.98;10.52;;;14.70;77.40;;;;;;5073260;28;20037;-77
2021/05/31 02:20:36;;;;;;;19.17;10.48;;;14.70;77.40;;;;;;5072129;28;20032;-77
2021/05/31 02:23:04;;;;;;;14.65;9.93;;;14.60;77.50;;;;;;5072084;28;20033;-77
2021/05/31 02:25:31;;;;;;;18.55;11.05;;;14.60;78.20;;;;;;5073522;28;20552;-77
2021/05/31 02:27:58;;;;;;;16.40;10.15;;;14.60;77.70;;;;;;5055245;28;20028;-76
2021/05/31 02:30:24;;;;;;;20.67;10.85;;;14.60;78.00;;;;;;5066000;28;20049;-77
2021/05/31 02:32:55;;;;;;;18.13;11.40;;;14.50;78.00;;;;;;5035470;28;20480;-77
2021/05/31 02:35:23;;;;;;;19.73;10.52;;;14.50;78.20;;;;;;5053407;28;20029;-77
2021/05/31 02:37:49;;;;;;;20.80;12.07;;;14.50;78.40;;;;;;5052035;28;20036;-77
2021/05/31 02:40:16;;;;;;;24.42;15.35;;;14.50;78.60;;;;;;5051838;28;20040;-77
2021/05/31 02:42:54;;;;;;;31.25;21.48;;;14.50;78.70;;;;;;5053458;28;20027;-77
2021/05/31 02:45:23;;;;;;;40.83;28.30;;;14.40;78.80;;;;;;5052105;28;20017;-77
2021/05/31 02:47:49;;;;;;;49.65;34.53;;;14.40;78.90;;;;;;5051863;28;20068;-77
2021/05/31 02:50:16;;;;;;;55.38;39.67;;;14.40;79.00;;;;;;5035256;28;20124;-77
2021/05/31 02:52:42;;;;;;;61.40;41.75;;;14.30;79.00;;;;;;5052986;28;20029;-77
2021/05/31 02:55:19;;;;;;;70.40;43.13;;;14.30;79.20;;;;;;5051787;28;20057;-77
2021/05/31 02:57:46;;;;;;;70.05;40.72;;;14.30;79.40;;;;;;5053022;28;20036;-77
2021/05/31 03:00:14;;;;;;;63.75;40.38;;;14.20;79.30;;;;;;5035062;28;20035;-77
2021/05/31 03:02:40;;;;;;;60.97;36.53;;;14.20;79.50;;;;;;5051587;28;20056;-77
2021/05/31 03:05:08;;;;;;;68.93;39.33;;;14.20;79.80;;;;;;5053218;28;20485;-76
2021/05/31 03:07:34;;;;;;;68.57;37.38;;;14.20;79.90;;;;;;5035280;28;20021;-76
2021/05/31 03:09:59;;;;;;;62.88;35.42;;;14.20;80.10;;;;;;5052809;28;20108;-76
2021/05/31 03:12:25;;;;;;;63.30;34.13;;;14.10;80.20;;;;;;5051760;28;20060;-76
2021/05/31 03:14:52;;;;;;;48.67;30.05;;;14.10;80.30;;;;;;5035159;28;20029;-76
2021/05/31 03:17:19;;;;;;;56.13;29.00;;;14.10;80.40;;;;;;5052727;28;20100;-76
2021/05/31 03:19:44;;;;;;;47.13;23.92;;;14.00;80.50;;;;;;5053386;28;20496;-76
2021/05/31 03:22:11;;;;;;;45.25;24.20;;;14.00;80.50;;;;;;5056466;28;20116;-76
2021/05/31 03:24:36;;;;;;;35.33;20.88;;;14.00;80.90;;;;;;5055047;28;20025;-77
2021/05/31 03:27:03;;;;;;;32.75;19.25;;;14.00;80.70;;;;;;5055143;28;20111;-76
2021/05/31 03:29:29;;;;;;;32.20;17.50;;;14.00;80.80;;;;;;5054801;28;20045;-76
2021/05/31 03:31:56;;;;;;;27.90;16.90;;;13.90;80.80;;;;;;5068578;28;20476;-76
2021/05/31 03:34:22;;;;;;;27.95;16.90;;;13.90;80.90;;;;;;5057980;28;20021;-76
2021/05/31 03:36:48;;;;;;;25.80;14.40;;;14.00;81.10;;;;;;5055195;28;20025;-76
2021/05/31 03:39:13;;;;;;;21.88;13.05;;;13.90;81.10;;;;;;5038303;28;20052;-76
2021/05/31 03:41:39;;;;;;;23.40;13.73;;;13.90;81.10;;;;;;5055049;28;20052;-76
2021/05/31 03:44:05;;;;;;;22.27;12.90;;;13.90;81.10;;;;;;5054829;28;20443;-76
2021/05/31 03:46:31;;;;;;;21.48;12.98;;;13.80;81.10;;;;;;5056001;28;20017;-76
2021/05/31 03:48:56;;;;;;;24.10;12.73;;;13.80;81.20;;;;;;5038373;28;20025;-76
2021/05/31 03:51:22;;;;;;;21.77;12.60;;;13.80;81.20;;;;;;5055007;28;20059;-76
2021/05/31 03:53:48;;;;;;;20.83;12.88;;;13.80;81.20;;;;;;5038620;28;20036;-76
2021/05/31 03:56:14;;;;;;;27.38;13.07;;;13.80;81.20;;;;;;5056540;28;20439;-76
2021/05/31 03:58:42;;;;;;;19.50;12.82;;;13.80;81.40;;;;;;5054822;28;20029;-76
2021/05/31 04:01:08;;;;;;;20.27;12.43;;;13.80;81.40;;;;;;5064950;28;20401;-76
2021/05/31 04:03:35;;;;;;;21.70;11.82;;;13.80;81.40;;;;;;5074804;28;20090;-77
2021/05/31 04:11:39;;;;;;;22.67;12.10;;;13.70;81.70;;;;;;5074882;28;20158;-76
2021/05/31 04:14:08;;;;;;;24.33;13.27;;;13.80;81.70;;;;;;5075596;28;20032;-76
2021/05/31 04:16:35;;;;;;;23.35;13.25;;;13.80;81.80;;;;;;5075640;28;20410;-77
2021/05/31 04:19:01;;;;;;;18.83;12.60;;;13.70;81.80;;;;;;5057391;28;20041;-77
2021/05/31 04:21:27;;;;;;;20.27;12.52;;;13.80;81.90;;;;;;5074206;28;20033;-77
2021/05/31 04:23:53;;;;;;;27.23;13.48;;;13.80;82.00;;;;;;5073912;28;20028;-77
2021/05/31 04:26:19;;;;;;;19.45;12.23;;;13.80;82.10;;;;;;5057966;28;20028;-76
2021/05/31 04:28:45;;;;;;;24.70;13.40;;;13.80;82.00;;;;;;5074377;28;20032;-77
2021/05/31 04:31:10;;;;;;;22.27;12.68;;;13.80;82.00;;;;;;5070941;28;20456;-76
2021/05/31 04:33:36;;;;;;;20.85;12.90;;;13.80;82.00;;;;;;5056400;28;20044;-77
2021/05/31 04:36:02;;;;;;;21.52;12.57;;;13.80;82.10;;;;;;5057449;28;20063;-77
2021/05/31 04:38:28;;;;;;;21.85;13.40;;;13.80;82.20;;;;;;5055063;28;20036;-77
2021/05/31 04:40:54;;;;;;;19.88;13.63;;;13.80;82.40;;;;;;5040136;28;20020;-77
2021/05/31 04:43:20;;;;;;;23.23;13.13;;;13.80;82.40;;;;;;5073589;28;20032;-76
2021/05/31 04:45:46;;;;;;;23.52;13.68;;;13.90;82.40;;;;;;5074260;28;20373;-77
2021/05/31 04:48:12;;;;;;;22.67;13.88;;;13.90;82.50;;;;;;5073495;28;20104;-76
2021/05/31 04:50:38;;;;;;;21.50;13.60;;;13.90;82.60;;;;;;5074898;28;20057;-76
2021/05/31 04:53:03;;;;;;;20.40;12.73;;;14.00;82.40;;;;;;5073825;28;20033;-75
2021/05/31 04:55:29;;;;;;;24.67;12.35;;;14.00;82.40;;;;;;5073489;28;20032;-75
2021/05/31 04:57:55;;;;;;;25.15;13.13;;;14.00;82.20;;;;;;5073683;28;20028;-75
2021/05/31 05:00:20;;;;;;;20.45;13.10;;;14.00;82.00;;;;;;5050190;28;20037;-75
2021/05/31 05:02:46;;;;;;;22.42;13.25;;;14.00;81.90;;;;;;5066194;28;20032;-76
2021/05/31 05:05:12;;;;;;;20.60;13.40;;;14.10;81.90;;;;;;5037013;28;20028;-75
2021/05/31 05:07:45;;;;;;;23.45;13.05;;;14.10;81.80;;;;;;5048548;28;20120;-75
2021/05/31 05:10:29;;;;;;;18.63;11.77;;;14.10;81.80;;;;;;5053149;28;20025;-76
2021/05/31 05:12:56;;;;;;;20.40;12.63;;;14.20;81.90;;;;;;5066596;28;20036;-76
2021/05/31 05:15:23;;;;;;;21.52;13.30;;;14.20;81.80;;;;;;5072762;28;20033;-75
2021/05/31 05:17:49;;;;;;;22.45;13.75;;;14.20;81.70;;;;;;5061814;28;20028;-75
2021/05/31 05:20:17;;;;;;;21.52;12.93;;;14.20;81.50;;;;;;5073214;28;20032;-75
2021/05/31 05:22:44;;;;;;;20.45;13.55;;;14.20;81.40;;;;;;5074098;28;20033;-75
2021/05/31 05:25:11;;;;;;;21.52;13.13;;;14.30;81.50;;;;;;5060750;28;20028;-75
2021/05/31 05:27:37;;;;;;;26.67;12.23;;;14.30;81.50;;;;;;5094431;28;20452;-75
2021/05/31 05:30:06;;;;;;;25.23;13.63;;;14.30;81.50;;;;;;5072831;28;20078;-75
2021/05/31 05:32:33;;;;;;;22.27;13.25;;;14.30;81.50;;;;;;5020462;28;20043;-76
2021/05/31 05:35:08;;;;;;;21.38;14.13;;;14.30;81.30;;;;;;5063571;28;20025;-76
2021/05/31 05:37:41;;;;;;;27.92;13.82;;;14.30;81.30;;;;;;5053707;28;20029;-76
2021/05/31 05:47:44;;;;;;;19.83;12.80;;;14.40;81.40;;;;;;5053181;28;20155;-74
2021/05/31 05:50:13;;;;;;;21.27;13.02;;;14.40;81.60;;;;;;5051378;28;20039;-77
2021/05/31 05:52:38;;;;;;;19.38;12.95;;;14.50;81.60;;;;;;5072543;28;20177;-77
2021/05/31 05:55:08;;;;;;;18.58;12.32;;;14.50;81.50;;;;;;5072307;28;20515;-77
2021/05/31 05:57:35;;;;;;;23.77;13.35;;;14.50;81.60;;;;;;5073696;28;20017;-77
2021/05/31 06:00:04;;;;;;;21.48;13.07;;;14.60;81.60;;;;;;5072164;28;20170;-77
2021/05/31 06:02:30;;;;;;;19.55;12.40;;;14.60;81.50;;;;;;5052565;28;20021;-76
2021/05/31 06:04:56;;;;;;;18.13;12.25;;;14.60;81.50;;;;;;5052942;28;20032;-77
2021/05/31 06:07:21;;;;;;;21.70;13.15;;;14.70;81.60;;;;;;5052102;28;20354;-76
2021/05/31 06:09:47;;;;;;;21.00;13.48;;;14.70;81.40;;;;;;5053545;28;20411;-77
2021/05/31 06:12:13;;;;;;;19.25;12.07;;;14.70;81.30;;;;;;5035449;28;20025;-77
2021/05/31 06:14:38;;;;;;;18.70;12.10;;;14.80;81.20;;;;;;5019297;28;20132;-77
2021/05/31 06:17:04;;;;;;;21.48;12.15;;;14.80;81.20;;;;;;5052335;28;20025;-77
2021/05/31 06:19:30;;;;;;;20.42;12.48;;;14.90;81.20;;;;;;5035307;28;20029;-76
2021/05/31 06:21:56;;;;;;;21.33;12.13;;;14.90;81.20;;;;;;5053664;28;20043;-81
2021/05/31 06:24:21;;;;;;;19.13;11.82;;;14.90;81.20;;;;;;5051831;28;20554;-81
2021/05/31 06:26:47;;;;;;;20.58;11.40;;;15.00;81.10;;;;;;5035423;28;20056;-80
2021/05/31 06:29:12;;;;;;;18.80;11.95;;;15.00;81.00;;;;;;5051946;28;20053;-80
2021/05/31 06:31:38;;;;;;;19.10;12.63;;;15.00;81.00;;;;;;5018796;28;20033;-81
2021/05/31 06:34:04;;;;;;;22.40;11.93;;;15.00;80.90;;;;;;5052019;28;20056;-83
2021/05/31 06:36:31;;;;;;;16.77;11.07;;;15.10;80.90;;;;;;5030840;28;20064;-80
2021/05/31 06:38:57;;;;;;;19.95;12.98;;;15.10;80.90;;;;;;5051981;28;20029;-80
2021/05/31 06:41:22;;;;;;;19.90;12.50;;;15.20;81.00;;;;;;5035211;28;20048;-81
2021/05/31 06:43:48;;;;;;;21.10;12.05;;;15.20;81.00;;;;;;5051891;28;20500;-79
2021/05/31 06:46:14;;;;;;;24.85;12.60;;;15.20;81.00;;;;;;5035221;28;20056;-81
2021/05/31 06:48:39;;;;;;;20.30;12.60;;;15.30;81.10;;;;;;5051532;28;20098;-82
2021/05/31 06:51:06;;;;;;;19.58;12.30;;;15.30;81.20;;;;;;5060214;28;20020;-81
2021/05/31 06:53:32;;;;;;;19.50;12.27;;;15.40;81.10;;;;;;5072981;28;20039;-81
2021/05/31 06:55:58;;;;;;;19.88;12.43;;;15.40;81.20;;;;;;5055349;28;20017;-80
2021/05/31 06:58:23;;;;;;;17.40;10.65;;;15.50;81.10;;;;;;5038952;28;20365;-81
2021/05/31 07:00:50;;;;;;;16.92;10.15;;;15.50;81.00;;;;;;5056120;28;20036;-80
2021/05/31 07:03:15;;;;;;;24.02;12.40;;;15.60;80.90;;;;;;5069442;28;20388;-81
2021/05/31 07:05:41;;;;;;;17.80;12.15;;;15.60;80.80;;;;;;5058729;28;20029;-80
2021/05/31 07:08:07;;;;;;;17.90;10.35;;;15.70;80.70;;;;;;5035756;28;20021;-80
2021/05/31 07:10:32;;;;;;;19.30;11.30;;;15.70;80.60;;;;;;5055015;28;20021;-81
2021/05/31 07:12:59;;;;;;;18.40;11.20;;;15.80;80.40;;;;;;5038770;28;20048;-78
2021/05/31 07:15:25;;;;;;;23.85;12.60;;;15.80;80.40;;;;;;5056839;28;20036;-81
2021/05/31 07:17:51;;;;;;;20.38;11.45;;;15.90;80.40;;;;;;5065261;28;20029;-80
2021/05/31 07:20:19;;;;;;;19.90;11.25;;;15.90;80.20;;;;;;5065351;28;20480;-80
2021/05/31 07:22:46;;;;;;;18.30;10.95;;;16.00;80.20;;;;;;5076345;28;20021;-81
2021/05/31 07:25:14;;;;;;;20.65;11.15;;;16.00;80.20;;;;;;5065826;28;20510;-80
2021/05/31 07:27:40;;;;;;;16.50;10.95;;;16.10;80.30;;;;;;5055179;28;20028;-79
2021/05/31 07:30:08;;;;;;;16.40;10.70;;;16.10;80.30;;;;;;5054844;28;20131;-79
2021/05/31 07:32:36;;;;;;;18.17;12.10;;;16.10;80.30;;;;;;5055834;28;20024;-79
2021/05/31 07:35:06;;;;;;;20.02;11.70;;;16.20;80.30;;;;;;5074881;28;20079;-80
2021/05/31 07:37:32;;;;;;;19.55;12.00;;;16.30;80.10;;;;;;5058364;28;20033;-79
2021/05/31 07:39:58;;;;;;;19.25;12.13;;;16.40;80.80;;;;;;5076491;28;20037;-79
2021/05/31 07:42:24;;;;;;;19.75;12.32;;;16.40;80.20;;;;;;5058147;28;20115;-80
2021/05/31 07:44:49;;;;;;;20.95;12.23;;;16.50;80.10;;;;;;5058050;28;20384;-80
2021/05/31 07:47:15;;;;;;;21.50;11.27;;;16.60;79.90;;;;;;5074681;28;20027;-80
2021/05/31 07:49:41;;;;;;;17.83;11.85;;;16.60;79.90;;;;;;5076097;28;20040;-79
2021/05/31 07:52:29;;;;;;;18.85;10.25;;;16.60;79.70;;;;;;5058555;28;20029;-80
2021/05/31 07:54:54;;;;;;;19.42;10.07;;;16.70;79.60;;;;;;5075870;28;20060;-79
2021/05/31 07:57:23;;;;;;;18.77;10.80;;;16.80;79.50;;;;;;5075150;28;20039;-78
2021/05/31 07:59:51;;;;;;;14.55;10.15;;;16.80;79.50;;;;;;5058410;28;20429;-82
2021/05/31 08:02:16;;;;;;;17.75;9.90;;;16.90;79.30;;;;;;5074873;28;20035;-81
2021/05/31 08:04:42;;;;;;;20.13;10.07;;;17.00;79.20;;;;;;5037652;28;20411;-80
2021/05/31 08:07:09;;;;;;;14.30;8.75;;;17.00;79.10;;;;;;5054562;28;20021;-81
2021/05/31 08:09:35;;;;;;;16.80;8.65;;;17.10;79.00;;;;;;5057585;28;20077;-81
2021/05/31 08:12:00;;;;;;;16.40;9.07;;;17.20;78.70;;;;;;5074277;28;20085;-81
2021/05/31 08:14:26;;;;;;;16.33;9.07;;;17.30;78.50;;;;;;5074576;28;20545;-81
2021/05/31 08:16:52;;;;;;;16.45;9.65;;;17.30;78.40;;;;;;5075655;28;20032;-83
2021/05/31 08:19:19;;;;;;;16.23;8.50;;;17.40;78.10;;;;;;5075579;28;20032;-81
2021/05/31 08:21:46;;;;;;;15.82;8.13;;;17.50;77.80;;;;;;5074401;28;20104;-81
2021/05/31 08:24:12;;;;;;;14.23;8.18;;;17.60;77.90;;;;;;5074304;28;20023;-81
2021/05/31 08:26:39;;;;;;;11.70;7.72;;;17.60;77.70;;;;;;5075528;28;20103;-83
2021/05/31 08:29:05;;;;;;;13.13;8.00;;;17.70;77.40;;;;;;5057342;28;20020;-80
2021/05/31 08:31:31;;;;;;;17.58;8.98;;;17.80;77.20;;;;;;5073927;28;20059;-82
2021/05/31 08:33:57;;;;;;;11.88;8.00;;;17.90;76.80;;;;;;5074284;28;20024;-81
2021/05/31 08:36:23;;;;;;;16.45;8.45;;;17.90;76.50;;;;;;5073888;28;20089;-81
2021/05/31 08:38:50;;;;;;;12.30;7.28;;;18.00;76.40;;;;;;5073834;28;20031;-81
2021/05/31 08:41:16;;;;;;;12.35;6.75;;;18.20;76.10;;;;;;5057719;28;20025;-82
2021/05/31 08:43:42;;;;;;;11.55;6.10;;;18.20;75.40;;;;;;5074982;28;20069;-82
2021/05/31 08:46:07;;;;;;;12.05;5.85;;;18.30;75.10;;;;;;5073834;28;20060;-81
2021/05/31 08:48:33;;;;;;;11.32;6.07;;;18.40;74.40;;;;;;5073672;28;20025;-80
2021/05/31 08:50:59;;;;;;;10.52;4.85;;;18.50;74.60;;;;;;5058241;28;20020;-81
2021/05/31 08:53:25;;;;;;;10.00;4.95;;;18.60;73.50;;;;;;5074914;28;20017;-81
2021/05/31 08:55:51;;;;;;;11.95;5.30;;;18.60;72.90;;;;;;5073486;28;20028;-83
2021/05/31 08:58:19;;;;;;;12.45;6.20;;;18.70;72.50;;;;;;5073307;28;20028;-82
2021/05/31 09:00:45;;;;;;;10.77;5.38;;;18.80;72.20;;;;;;5073160;28;20028;-82
2021/05/31 09:03:11;;;;;;;9.30;5.10;;;18.90;71.90;;;;;;5073442;28;20498;-81
2021/05/31 09:05:42;;;;;;;8.18;4.75;;;19.00;71.10;;;;;;5073366;28;20024;-82
2021/05/31 09:08:16;;;;;;;9.93;4.05;;;19.10;70.30;;;;;;5073334;28;20357;-80
2021/05/31 09:10:44;;;;;;;6.32;4.45;;;19.20;69.20;;;;;;5073188;28;20076;-82
2021/05/31 09:13:27;;;;;;;9.30;5.25;;;19.30;68.90;;;;;;5073027;28;20028;-82
2021/05/31 09:16:08;;;;;;;8.43;4.80;;;19.40;68.90;;;;;;5073027;28;20056;-83
2021/05/31 09:18:36;;;;;;;9.52;5.15;;;19.50;68.70;;;;;;5073688;28;20036;-82
2021/05/31 09:21:35;;;;;;;9.65;5.88;;;19.60;68.50;;;;;;5073049;28;20020;-81
2021/05/31 09:24:08;;;;;;;7.72;4.50;;;19.70;67.70;;;;;;5072836;28;20066;-81
2021/05/31 09:27:06;;;;;;;7.80;4.83;;;19.80;67.30;;;;;;5072916;28;20465;-81
2021/05/31 09:29:32;;;;;;;11.43;4.50;;;20.00;66.90;;;;;;5052576;28;20294;-83
2021/05/31 09:31:59;;;;;;;8.73;3.97;;;20.00;66.60;;;;;;5056294;28;20131;-83
2021/05/31 09:34:25;;;;;;;6.43;3.67;;;20.10;66.30;;;;;;5073039;28;20021;-81
2021/05/31 09:36:53;;;;;;;7.88;4.00;;;20.20;66.20;;;;;;5072676;28;20476;-81
2021/05/31 09:39:40;;;;;;;8.02;3.53;;;20.30;64.90;;;;;;5072644;28;20039;-81
2021/05/31 09:42:12;;;;;;;4.53;3.05;;;20.40;64.10;;;;;;5072432;28;20108;-81
2021/05/31 09:44:57;;;;;;;7.72;3.42;;;20.50;63.70;;;;;;5073711;28;20421;-81
2021/05/31 09:47:29;;;;;;;7.38;3.50;;;20.60;62.60;;;;;;5072511;28;20052;-81
2021/05/31 09:49:55;;;;;;;9.80;4.05;;;20.60;61.30;;;;;;5056315;28;20033;-82
2021/05/31 09:52:21;;;;;;;6.75;3.72;;;20.70;61.20;;;;;;5035859;28;20439;-81
2021/05/31 09:54:49;;;;;;;9.30;3.10;;;20.80;61.10;;;;;;5052546;28;20112;-82
2021/05/31 09:57:26;;;;;;;6.78;3.47;;;20.90;60.60;;;;;;5035795;28;20029;-82
2021/05/31 09:59:55;;;;;;;7.93;3.53;;;21.00;60.10;;;;;;5052130;28;20028;-82
2021/05/31 10:05:11;;;;;;;6.07;3.35;;;21.10;59.90;;;;;;5053558;28;20121;-81
2021/05/31 10:07:45;;;;;;;6.90;3.08;;;21.20;59.70;;;;;;5052222;28;20033;-83
2021/05/31 10:10:12;;;;;;;7.55;3.28;;;21.30;59.30;;;;;;5036784;28;20117;-81
2021/05/31 10:12:38;;;;;;;8.65;2.90;;;21.40;58.60;;;;;;5058596;28;20037;-81
2021/05/31 10:15:07;;;;;;;7.63;2.95;;;21.40;58.30;;;;;;5066471;28;20032;-83
2021/05/31 10:17:32;;;;;;;5.63;2.88;;;21.50;57.80;;;;;;5073823;28;20039;-83
2021/05/31 10:20:01;;;;;;;5.82;3.58;;;21.60;57.80;;;;;;5073421;28;20384;-83
2021/05/31 10:22:26;;;;;;;6.30;3.33;;;21.60;57.70;;;;;;5072199;28;20433;-82
2021/05/31 10:24:53;;;;;;;5.72;3.05;;;21.70;57.40;;;;;;5072283;28;20071;-85
2021/05/31 10:27:20;;;;;;;7.53;2.95;;;21.90;57.30;;;;;;5073363;28;20059;-83
2021/05/31 10:29:46;;;;;;;5.60;3.08;;;22.00;56.80;;;;;;5070674;28;20063;-82
2021/05/31 10:32:12;;;;;;;6.57;3.08;;;22.20;56.80;;;;;;5038207;28;20024;-78
2021/05/31 10:35:18;;;;;;;5.60;2.70;;;22.30;56.40;;;;;;5071108;28;20064;-79
2021/05/31 10:37:57;;;;;;;6.45;3.10;;;22.60;56.00;;;;;;5054148;28;20448;-78
2021/05/31 10:40:41;;;;;;;4.25;2.60;;;22.80;55.50;;;;;;5051003;28;20036;-76
2021/05/31 10:43:09;;;;;;;6.07;2.47;;;23.20;55.00;;;;;;5066573;28;20021;-79
2021/05/31 10:45:36;;;;;;;6.50;2.88;;;23.50;54.00;;;;;;5055896;28;20074;-77
2021/05/31 10:48:19;;;;;;;4.88;2.72;;;23.80;53.40;;;;;;5054702;28;20127;-77
2021/05/31 10:51:00;;;;;;;4.13;2.27;;;24.20;52.50;;;;;;5063027;28;20020;-78
2021/05/31 10:53:32;;;;;;;5.53;2.35;;;24.60;52.70;;;;;;5058760;28;20283;-82
2021/05/31 10:56:02;;;;;;;6.03;2.25;;;25.10;52.70;;;;;;5065986;28;20103;-77
2021/05/31 10:58:49;;;;;;;4.90;2.17;;;25.60;52.10;;;;;;5057750;28;20021;-77
2021/05/31 11:01:20;;;;;;;4.28;2.20;;;26.40;50.90;;;;;;5053295;28;20091;-83
2021/05/31 11:04:02;;;;;;;4.13;1.70;;;27.00;50.70;;;;;;5056081;28;20028;-82
2021/05/31 11:06:40;;;;;;;7.03;1.98;;;27.70;48.70;;;;;;5070687;28;20024;-83
2021/05/31 11:09:19;;;;;;;4.03;2.03;;;28.00;48.20;;;;;;5056405;28;20013;-81
2021/05/31 11:11:49;;;;;;;5.10;2.03;;;28.30;46.90;;;;;;5067491;28;20066;-83
2021/05/31 11:14:17;;;;;;;4.07;1.73;;;28.40;45.60;;;;;;5036820;28;20033;-80
2021/05/31 11:16:54;;;;;;;4.13;1.80;;;28.50;45.00;;;;;;5050527;28;20041;-81
2021/05/31 11:19:37;;;;;;;3.17;1.80;;;28.50;44.10;;;;;;5050520;28;20408;-81
2021/05/31 11:22:16;;;;;;;5.18;1.95;;;28.60;43.70;;;;;;5050476;28;20060;-80
2021/05/31 11:24:57;;;;;;;3.03;1.63;;;28.60;43.10;;;;;;5050271;28;20021;-82
2021/05/31 11:27:24;;;;;;;4.65;1.85;;;28.70;42.80;;;;;;5034522;28;20017;-80
2021/05/31 11:29:51;;;;;;;4.55;1.70;;;28.80;42.60;;;;;;4993241;28;1164753;-81
2021/05/31 11:32:20;;;;;;;4.25;1.85;;;28.80;42.50;;;;;;5070784;28;20032;-81
2021/05/31 11:34:59;;;;;;;3.17;1.77;;;28.90;42.60;;;;;;5065288;28;20029;-80
2021/05/31 11:37:27;;;;;;;4.50;1.80;;;28.90;41.10;;;;;;5043909;28;20178;-82
2021/05/31 11:39:53;;;;;;;3.83;1.98;;;29.00;40.90;;;;;;5052676;28;20021;-83
2021/05/31 11:42:20;;;;;;;3.90;2.03;;;29.00;40.70;;;;;;5038175;28;20040;-77
2021/05/31 11:45:01;;;;;;;4.38;1.80;;;29.10;40.40;;;;;;5055966;28;20104;-80
2021/05/31 11:47:29;;;;;;;3.35;1.83;;;29.20;39.80;;;;;;5057761;28;20020;-77
2021/05/31 11:49:55;;;;;;;4.28;2.15;;;29.30;39.70;;;;;;5060746;28;20025;-82
2021/05/31 11:52:26;;;;;;;4.00;1.58;;;29.40;39.30;;;;;;5056739;28;20051;-82
2021/05/31 11:54:53;;;;;;;3.75;1.70;;;29.50;38.90;;;;;;5055049;28;20028;-79
2021/05/31 11:57:21;;;;;;;2.75;1.70;;;29.60;38.90;;;;;;5054741;28;20029;-83
2021/05/31 11:59:50;;;;;;;5.38;2.10;;;29.70;38.70;;;;;;5055095;28;20061;-81
2021/05/31 12:02:21;;;;;;;3.72;2.22;;;29.80;38.60;;;;;;5055874;28;20013;-83
2021/05/31 12:04:48;;;;;;;3.58;1.70;;;29.90;38.50;;;;;;5075799;28;20071;-79
2021/05/31 12:07:17;;;;;;;3.40;2.03;;;30.00;38.40;;;;;;5075457;28;20056;-85
2021/05/31 12:09:43;;;;;;;5.57;1.95;;;30.10;38.20;;;;;;5041403;28;20053;-80
2021/05/31 12:12:17;;;;;;;4.57;1.63;;;30.10;38.00;;;;;;5074665;28;20365;-78
2021/05/31 12:14:46;;;;;;;3.97;1.60;;;30.20;37.80;;;;;;5075547;28;20025;-80
2021/05/31 12:17:13;;;;;;;4.05;1.90;;;30.40;38.00;;;;;;5074011;28;20437;-79
2021/05/31 12:19:40;;;;;;;2.80;1.40;;;30.50;37.80;;;;;;5058322;28;20139;-81
2021/05/31 12:22:08;;;;;;;4.18;1.48;;;30.60;36.90;;;;;;5074028;28;20052;-81
2021/05/31 12:24:36;;;;;;;3.10;1.35;;;30.70;36.40;;;;;;5057145;28;20119;-78
2021/05/31 12:27:03;;;;;;;3.88;1.90;;;30.70;36.20;;;;;;5058087;28;20044;-78
2021/05/31 12:29:48;;;;;;;4.05;1.85;;;30.70;36.40;;;;;;5053528;28;20029;-78
2021/05/31 12:32:20;;;;;;;4.13;1.45;;;30.80;36.40;;;;;;5058763;28;20056;-81
2021/05/31 12:34:46;;;;;;;4.82;2.33;;;30.80;36.50;;;;;;5072848;28;20055;-76
2021/05/31 12:37:47;;;;;;;6.38;2.20;;;30.90;36.60;;;;;;5037199;28;20047;-80
2021/05/31 12:40:14;;;;;;;4.25;2.28;;;31.00;36.50;;;;;;5053883;28;20035;-80
2021/05/31 12:42:41;;;;;;;5.75;2.25;;;31.10;36.90;;;;;;5059180;28;20028;-78
2021/05/31 12:45:12;;;;;;;6.20;2.42;;;31.30;37.00;;;;;;5073555;28;20040;-82
2021/05/31 12:47:40;;;;;;;4.57;1.88;;;31.40;36.60;;;;;;5073732;28;20032;-78
2021/05/31 12:50:13;;;;;;;4.43;2.20;;;31.60;36.30;;;;;;5073821;28;20035;-82
2021/05/31 12:52:44;;;;;;;4.22;2.10;;;31.60;35.80;;;;;;5049712;28;20043;-77
2021/05/31 12:55:15;;;;;;;6.43;2.30;;;31.60;35.80;;;;;;5054497;28;20025;-78
2021/05/31 12:57:46;;;;;;;5.55;2.40;;;31.70;35.90;;;;;;5053691;28;20071;-78
2021/05/31 13:00:31;;;;;;;3.88;1.88;;;31.90;36.80;;;;;;5054814;28;20373;-78